Terminal Aerodrome Forecast
Issued by NWS

Home | Current Version | Previous Version | Graphics & Text | Print | Product List | Glossary On
Versions: 1 2 3 4 5 6 7 8 9 10 11 12 13 14 15 16 17 18
000
FTUS43 KMPX 311741
TAFRNH
TAF
KRNH 311741Z 3118/0118 02009KT P6SM OVC020
      TEMPO 3121/0101 SCT020
     FM010100 03012G20KT P6SM OVC025
     FM011400 03013G20KT P6SM SCT025 BKN080=

USA.gov is the U.S. government's official web portal to all federal, state and local government web resources and services.